sensor_id;sensor_type;location;lat;lon;timestamp;pressure;altitude;pressure_sealevel;temperature;humidity
64095;BME280;50353;51.420;5.682;2023-01-25T00:01:56;103443.09;;;2.25;79.79
64095;BME280;50353;51.420;5.682;2023-01-25T00:04:22;103439.41;;;2.12;80.17
64095;BME280;50353;51.420;5.682;2023-01-25T00:06:48;103442.84;;;2.09;78.90
64095;BME280;50353;51.420;5.682;2023-01-25T00:09:15;103443.81;;;2.14;79.83
64095;BME280;50353;51.420;5.682;2023-01-25T00:11:41;103429.25;;;2.29;78.74
64095;BME280;50353;51.420;5.682;2023-01-25T00:14:08;103435.47;;;1.85;79.95
64095;BME280;50353;51.420;5.682;2023-01-25T00:16:33;103437.03;;;1.77;80.06
64095;BME280;50353;51.420;5.682;2023-01-25T00:19:00;103439.88;;;1.89;80.41
64095;BME280;50353;51.420;5.682;2023-01-25T00:21:25;103444.06;;;1.81;79.62
64095;BME280;50353;51.420;5.682;2023-01-25T00:23:51;103443.28;;;1.85;80.43
64095;BME280;50353;51.420;5.682;2023-01-25T00:26:17;103442.06;;;1.66;80.57
64095;BME280;50353;51.420;5.682;2023-01-25T00:28:47;103439.53;;;1.26;82.73
64095;BME280;50353;51.420;5.682;2023-01-25T00:31:20;103431.91;;;1.35;83.32
64095;BME280;50353;51.420;5.682;2023-01-25T00:33:50;103435.34;;;1.33;82.46
64095;BME280;50353;51.420;5.682;2023-01-25T00:39:04;103428.63;;;1.03;84.60
64095;BME280;50353;51.420;5.682;2023-01-25T00:41:30;103433.91;;;1.06;84.70
64095;BME280;50353;51.420;5.682;2023-01-25T00:43:55;103426.66;;;1.34;83.72
64095;BME280;50353;51.420;5.682;2023-01-25T00:46:21;103434.81;;;1.51;83.17
64095;BME280;50353;51.420;5.682;2023-01-25T00:48:46;103437.09;;;1.80;81.82
64095;BME280;50353;51.420;5.682;2023-01-25T00:51:12;103430.13;;;1.33;82.92
64095;BME280;50353;51.420;5.682;2023-01-25T00:53:37;103424.06;;;1.80;81.70
64095;BME280;50353;51.420;5.682;2023-01-25T00:56:03;103428.03;;;1.59;82.87
64095;BME280;50353;51.420;5.682;2023-01-25T00:58:28;103430.19;;;1.82;81.76
64095;BME280;50353;51.420;5.682;2023-01-25T01:00:55;103431.56;;;1.61;81.98
64095;BME280;50353;51.420;5.682;2023-01-25T01:03:21;103428.59;;;1.44;81.82
64095;BME280;50353;51.420;5.682;2023-01-25T01:05:46;103422.53;;;1.01;83.27
64095;BME280;50353;51.420;5.682;2023-01-25T01:08:13;103424.19;;;1.42;82.26
64095;BME280;50353;51.420;5.682;2023-01-25T01:10:39;103425.47;;;1.18;83.03
64095;BME280;50353;51.420;5.682;2023-01-25T01:13:04;103416.75;;;1.60;82.15
64095;BME280;50353;51.420;5.682;2023-01-25T01:15:29;103415.66;;;1.47;81.80
64095;BME280;50353;51.420;5.682;2023-01-25T01:17:55;103415.69;;;1.49;82.68
64095;BME280;50353;51.420;5.682;2023-01-25T01:20:21;103405.00;;;1.84;80.83
64095;BME280;50353;51.420;5.682;2023-01-25T01:22:46;103408.94;;;1.60;81.45
64095;BME280;50353;51.420;5.682;2023-01-25T01:25:12;103407.34;;;1.68;81.48
64095;BME280;50353;51.420;5.682;2023-01-25T01:27:38;103397.09;;;1.78;80.73
64095;BME280;50353;51.420;5.682;2023-01-25T01:30:04;103403.88;;;1.68;81.24
64095;BME280;50353;51.420;5.682;2023-01-25T01:32:29;103403.16;;;1.78;80.22
64095;BME280;50353;51.420;5.682;2023-01-25T01:34:55;103409.78;;;1.59;81.27
64095;BME280;50353;51.420;5.682;2023-01-25T01:37:20;103409.84;;;1.62;81.04
64095;BME280;50353;51.420;5.682;2023-01-25T01:39:45;103411.72;;;1.69;81.14
64095;BME280;50353;51.420;5.682;2023-01-25T01:42:11;103416.81;;;1.63;81.54
64095;BME280;50353;51.420;5.682;2023-01-25T01:44:45;103403.47;;;1.48;82.13
64095;BME280;50353;51.420;5.682;2023-01-25T01:47:19;103416.66;;;1.54;81.35
64095;BME280;50353;51.420;5.682;2023-01-25T01:49:51;103416.69;;;1.56;82.57
64095;BME280;50353;51.420;5.682;2023-01-25T01:52:21;103408.50;;;1.39;82.59
64095;BME280;50353;51.420;5.682;2023-01-25T01:55:07;103420.41;;;1.24;83.87
64095;BME280;50353;51.420;5.682;2023-01-25T01:57:37;103412.25;;;1.51;83.19
64095;BME280;50353;51.420;5.682;2023-01-25T02:00:17;103415.34;;;1.33;82.72
64095;BME280;50353;51.420;5.682;2023-01-25T02:02:44;103407.13;;;1.58;82.69
64095;BME280;50353;51.420;5.682;2023-01-25T02:05:16;103393.09;;;1.49;83.39
64095;BME280;50353;51.420;5.682;2023-01-25T02:07:43;103415.34;;;1.78;81.79
64095;BME280;50353;51.420;5.682;2023-01-25T02:10:11;103412.38;;;1.59;82.94
64095;BME280;50353;51.420;5.682;2023-01-25T02:12:37;103408.16;;;1.66;82.44
64095;BME280;50353;51.420;5.682;2023-01-25T02:15:03;103413.16;;;1.54;81.46
64095;BME280;50353;51.420;5.682;2023-01-25T02:17:38;103408.31;;;1.74;80.69
64095;BME280;50353;51.420;5.682;2023-01-25T02:20:12;103410.38;;;1.46;82.99
64095;BME280;50353;51.420;5.682;2023-01-25T02:22:55;103404.28;;;1.44;82.25
64095;BME280;50353;51.420;5.682;2023-01-25T02:25:23;103395.78;;;1.10;83.98
64095;BME280;50353;51.420;5.682;2023-01-25T02:28:04;103399.94;;;1.44;82.64
64095;BME280;50353;51.420;5.682;2023-01-25T02:30:31;103398.94;;;1.38;83.32
64095;BME280;50353;51.420;5.682;2023-01-25T02:32:57;103400.09;;;1.52;83.35
64095;BME280;50353;51.420;5.682;2023-01-25T02:35:35;103386.88;;;1.43;83.42
64095;BME280;50353;51.420;5.682;2023-01-25T02:38:01;103394.75;;;1.46;83.40
64095;BME280;50353;51.420;5.682;2023-01-25T02:40:27;103397.34;;;1.46;83.46
64095;BME280;50353;51.420;5.682;2023-01-25T02:42:55;103393.22;;;1.13;84.60
64095;BME280;50353;51.420;5.682;2023-01-25T02:45:24;103389.06;;;1.21;83.89
64095;BME280;50353;51.420;5.682;2023-01-25T02:47:52;103388.88;;;1.12;84.60
64095;BME280;50353;51.420;5.682;2023-01-25T02:50:17;103386.03;;;1.44;83.29
64095;BME280;50353;51.420;5.682;2023-01-25T02:52:43;103382.03;;;1.17;83.56
64095;BME280;50353;51.420;5.682;2023-01-25T02:55:08;103384.72;;;1.20;83.53
64095;BME280;50353;51.420;5.682;2023-01-25T02:57:34;103385.41;;;1.13;84.84
64095;BME280;50353;51.420;5.682;2023-01-25T02:59:59;103384.50;;;1.09;84.63
64095;BME280;50353;51.420;5.682;2023-01-25T03:02:25;103378.88;;;1.33;83.84
64095;BME280;50353;51.420;5.682;2023-01-25T03:04:50;103384.63;;;1.61;82.67
64095;BME280;50353;51.420;5.682;2023-01-25T03:07:15;103377.41;;;1.46;82.81
64095;BME280;50353;51.420;5.682;2023-01-25T03:09:41;103377.97;;;1.31;82.61
64095;BME280;50353;51.420;5.682;2023-01-25T03:12:06;103376.94;;;1.23;83.65
64095;BME280;50353;51.420;5.682;2023-01-25T03:14:31;103368.34;;;1.27;82.35
64095;BME280;50353;51.420;5.682;2023-01-25T03:16:57;103369.16;;;1.25;82.88
64095;BME280;50353;51.420;5.682;2023-01-25T03:19:22;103361.44;;;1.31;83.16
64095;BME280;50353;51.420;5.682;2023-01-25T03:21:47;103366.56;;;1.26;83.16
64095;BME280;50353;51.420;5.682;2023-01-25T03:24:13;103361.75;;;1.46;82.34
64095;BME280;50353;51.420;5.682;2023-01-25T03:26:38;103360.06;;;1.50;81.73
64095;BME280;50353;51.420;5.682;2023-01-25T03:29:22;103361.19;;;1.17;83.05
64095;BME280;50353;51.420;5.682;2023-01-25T03:31:47;103356.97;;;0.79;83.98
64095;BME280;50353;51.420;5.682;2023-01-25T03:34:13;103355.41;;;0.89;85.39
64095;BME280;50353;51.420;5.682;2023-01-25T03:36:38;103355.69;;;1.03;83.07
64095;BME280;50353;51.420;5.682;2023-01-25T03:39:04;103351.50;;;1.10;82.75
64095;BME280;50353;51.420;5.682;2023-01-25T03:41:29;103363.59;;;1.08;83.67
64095;BME280;50353;51.420;5.682;2023-01-25T03:43:54;103359.03;;;1.40;82.21
64095;BME280;50353;51.420;5.682;2023-01-25T03:46:19;103356.38;;;1.39;82.30
64095;BME280;50353;51.420;5.682;2023-01-25T03:48:45;103348.53;;;1.37;80.77
64095;BME280;50353;51.420;5.682;2023-01-25T03:51:11;103354.63;;;1.38;80.31
64095;BME280;50353;51.420;5.682;2023-01-25T03:53:36;103349.22;;;1.27;80.64
64095;BME280;50353;51.420;5.682;2023-01-25T03:56:05;103344.34;;;1.45;80.43
64095;BME280;50353;51.420;5.682;2023-01-25T03:58:36;103341.16;;;1.60;79.66
64095;BME280;50353;51.420;5.682;2023-01-25T04:01:02;103350.69;;;1.58;79.39
64095;BME280;50353;51.420;5.682;2023-01-25T04:03:28;103345.06;;;1.37;80.80
64095;BME280;50353;51.420;5.682;2023-01-25T04:05:54;103346.00;;;0.96;81.98
64095;BME280;50353;51.420;5.682;2023-01-25T04:08:20;103346.81;;;0.93;82.02
64095;BME280;50353;51.420;5.682;2023-01-25T04:10:58;103343.44;;;0.97;81.54
64095;BME280;50353;51.420;5.682;2023-01-25T04:13:24;103348.06;;;1.12;81.60
64095;BME280;50353;51.420;5.682;2023-01-25T04:15:50;103341.66;;;0.96;81.05
64095;BME280;50353;51.420;5.682;2023-01-25T04:18:16;103341.81;;;1.03;81.91
64095;BME280;50353;51.420;5.682;2023-01-25T04:20:41;103343.53;;;1.04;81.81
64095;BME280;50353;51.420;5.682;2023-01-25T04:23:07;103339.41;;;1.13;81.13
64095;BME280;50353;51.420;5.682;2023-01-25T04:25:33;103327.13;;;1.08;80.93
64095;BME280;50353;51.420;5.682;2023-01-25T04:27:58;103333.69;;;1.33;79.18
64095;BME280;50353;51.420;5.682;2023-01-25T04:30:24;103333.19;;;1.52;78.87
64095;BME280;50353;51.420;5.682;2023-01-25T04:32:49;103337.91;;;1.26;79.90
64095;BME280;50353;51.420;5.682;2023-01-25T04:35:14;103332.56;;;1.18;79.84
64095;BME280;50353;51.420;5.682;2023-01-25T04:37:40;103334.25;;;1.16;80.34
64095;BME280;50353;51.420;5.682;2023-01-25T04:40:06;103335.38;;;1.29;80.15
64095;BME280;50353;51.420;5.682;2023-01-25T04:42:31;103329.44;;;1.37;79.11
64095;BME280;50353;51.420;5.682;2023-01-25T04:44:57;103331.75;;;1.23;79.65
64095;BME280;50353;51.420;5.682;2023-01-25T04:47:22;103331.88;;;0.84;80.93
64095;BME280;50353;51.420;5.682;2023-01-25T04:49:47;103321.88;;;1.05;80.45
64095;BME280;50353;51.420;5.682;2023-01-25T04:52:12;103319.84;;;0.91;81.29
64095;BME280;50353;51.420;5.682;2023-01-25T04:54:38;103312.19;;;0.97;81.23
64095;BME280;50353;51.420;5.682;2023-01-25T04:57:03;103309.91;;;1.14;80.80
64095;BME280;50353;51.420;5.682;2023-01-25T04:59:28;103303.63;;;1.05;80.40
64095;BME280;50353;51.420;5.682;2023-01-25T05:01:54;103311.59;;;1.11;80.66
64095;BME280;50353;51.420;5.682;2023-01-25T05:04:19;103306.50;;;1.18;80.51
64095;BME280;50353;51.420;5.682;2023-01-25T05:06:44;103304.53;;;1.05;80.18
64095;BME280;50353;51.420;5.682;2023-01-25T05:09:09;103299.44;;;0.67;82.07
64095;BME280;50353;51.420;5.682;2023-01-25T05:11:35;103292.13;;;0.93;82.11
64095;BME280;50353;51.420;5.682;2023-01-25T05:14:00;103296.72;;;0.62;82.76
64095;BME280;50353;51.420;5.682;2023-01-25T05:16:26;103289.66;;;0.57;84.05
64095;BME280;50353;51.420;5.682;2023-01-25T05:18:53;103296.09;;;0.74;82.78
64095;BME280;50353;51.420;5.682;2023-01-25T05:21:18;103288.13;;;0.66;83.45
64095;BME280;50353;51.420;5.682;2023-01-25T05:24:02;103293.94;;;0.96;81.92
64095;BME280;50353;51.420;5.682;2023-01-25T05:26:28;103295.47;;;0.86;82.02
64095;BME280;50353;51.420;5.682;2023-01-25T05:29:12;103295.41;;;0.42;84.09
64095;BME280;50353;51.420;5.682;2023-01-25T05:31:37;103298.38;;;1.01;81.54
64095;BME280;50353;51.420;5.682;2023-01-25T05:34:02;103298.44;;;1.05;80.76
64095;BME280;50353;51.420;5.682;2023-01-25T05:36:28;103303.41;;;0.94;81.13
64095;BME280;50353;51.420;5.682;2023-01-25T05:38:53;103309.47;;;0.50;82.70
64095;BME280;50353;51.420;5.682;2023-01-25T05:41:18;103299.06;;;0.12;84.86
64095;BME280;50353;51.420;5.682;2023-01-25T05:43:47;103306.81;;;0.47;84.82
64095;BME280;50353;51.420;5.682;2023-01-25T05:46:13;103300.47;;;0.75;83.79
64095;BME280;50353;51.420;5.682;2023-01-25T05:48:39;103296.34;;;0.87;82.69
64095;BME280;50353;51.420;5.682;2023-01-25T05:51:04;103304.03;;;1.26;80.87
64095;BME280;50353;51.420;5.682;2023-01-25T05:53:30;103292.56;;;1.15;79.87
64095;BME280;50353;51.420;5.682;2023-01-25T05:55:56;103283.09;;;0.74;81.32
64095;BME280;50353;51.420;5.682;2023-01-25T05:58:21;103280.88;;;0.94;80.88
64095;BME280;50353;51.420;5.682;2023-01-25T06:00:46;103285.72;;;0.76;82.30
64095;BME280;50353;51.420;5.682;2023-01-25T06:03:12;103284.81;;;0.74;83.31
64095;BME280;50353;51.420;5.682;2023-01-25T06:05:37;103283.94;;;0.75;83.25
64095;BME280;50353;51.420;5.682;2023-01-25T06:08:02;103288.09;;;0.65;83.37
64095;BME280;50353;51.420;5.682;2023-01-25T06:10:27;103285.50;;;0.65;83.63
64095;BME280;50353;51.420;5.682;2023-01-25T06:12:59;103283.47;;;0.93;82.89
64095;BME280;50353;51.420;5.682;2023-01-25T06:15:24;103287.78;;;0.92;82.14
64095;BME280;50353;51.420;5.682;2023-01-25T06:17:54;103278.88;;;0.81;82.81
64095;BME280;50353;51.420;5.682;2023-01-25T06:20:19;103277.97;;;0.80;83.16
64095;BME280;50353;51.420;5.682;2023-01-25T06:22:51;103281.00;;;1.02;82.42
64095;BME280;50353;51.420;5.682;2023-01-25T06:25:16;103282.13;;;0.71;83.12
64095;BME280;50353;51.420;5.682;2023-01-25T06:27:42;103273.09;;;0.53;83.34
64095;BME280;50353;51.420;5.682;2023-01-25T06:30:08;103279.44;;;0.66;83.85
64095;BME280;50353;51.420;5.682;2023-01-25T06:32:33;103277.97;;;0.80;83.33
64095;BME280;50353;51.420;5.682;2023-01-25T06:34:58;103279.88;;;0.88;82.37
64095;BME280;50353;51.420;5.682;2023-01-25T06:37:24;103276.59;;;0.54;83.94
64095;BME280;50353;51.420;5.682;2023-01-25T06:39:49;103275.13;;;0.68;83.18
64095;BME280;50353;51.420;5.682;2023-01-25T06:42:14;103274.25;;;0.67;84.39
64095;BME280;50353;51.420;5.682;2023-01-25T06:44:40;103270.63;;;0.59;84.14
64095;BME280;50353;51.420;5.682;2023-01-25T06:47:07;103274.34;;;0.72;83.43
64095;BME280;50353;51.420;5.682;2023-01-25T06:49:32;103275.25;;;0.73;83.08
64095;BME280;50353;51.420;5.682;2023-01-25T06:51:58;103272.69;;;0.76;83.21
64095;BME280;50353;51.420;5.682;2023-01-25T06:54:25;103279.97;;;0.92;82.39
64095;BME280;50353;51.420;5.682;2023-01-25T06:56:50;103283.63;;;1.04;81.46
64095;BME280;50353;51.420;5.682;2023-01-25T06:59:15;103283.50;;;0.94;81.96
64095;BME280;50353;51.420;5.682;2023-01-25T07:01:40;103284.41;;;0.55;83.00
64095;BME280;50353;51.420;5.682;2023-01-25T07:04:08;103275.25;;;0.73;83.00
64095;BME280;50353;51.420;5.682;2023-01-25T07:06:35;103276.81;;;0.64;83.46
64095;BME280;50353;51.420;5.682;2023-01-25T07:09:04;103274.84;;;0.54;83.88
64095;BME280;50353;51.420;5.682;2023-01-25T07:11:30;103269.69;;;0.57;83.78
64095;BME280;50353;51.420;5.682;2023-01-25T07:13:55;103275.47;;;0.42;84.83
64095;BME280;50353;51.420;5.682;2023-01-25T07:16:20;103277.44;;;0.54;84.16
64095;BME280;50353;51.420;5.682;2023-01-25T07:18:46;103274.13;;;0.20;84.64
64095;BME280;50353;51.420;5.682;2023-01-25T07:21:22;103274.13;;;0.61;83.79
64095;BME280;50353;51.420;5.682;2023-01-25T07:23:49;103276.53;;;0.95;82.40
64095;BME280;50353;51.420;5.682;2023-01-25T07:26:20;103268.59;;;0.46;83.64
64095;BME280;50353;51.420;5.682;2023-01-25T07:28:47;103262.75;;;0.55;84.05
64095;BME280;50353;51.420;5.682;2023-01-25T07:31:13;103270.53;;;0.97;82.62
64095;BME280;50353;51.420;5.682;2023-01-25T07:33:39;103266.16;;;1.44;79.69
64095;BME280;50353;51.420;5.682;2023-01-25T07:36:07;103269.47;;;0.88;80.53
64095;BME280;50353;51.420;5.682;2023-01-25T07:38:33;103271.63;;;1.10;80.40
64095;BME280;50353;51.420;5.682;2023-01-25T07:40:58;103265.72;;;0.75;81.44
64095;BME280;50353;51.420;5.682;2023-01-25T07:43:24;103265.75;;;0.76;82.73
64095;BME280;50353;51.420;5.682;2023-01-25T07:45:50;103258.66;;;1.12;80.79
64095;BME280;50353;51.420;5.682;2023-01-25T07:48:16;103253.53;;;1.18;80.40
64095;BME280;50353;51.420;5.682;2023-01-25T07:50:43;103256.25;;;1.24;80.57
64095;BME280;50353;51.420;5.682;2023-01-25T07:53:14;103254.47;;;1.22;80.65
64095;BME280;50353;51.420;5.682;2023-01-25T07:55:39;103258.53;;;1.56;79.61
64095;BME280;50353;51.420;5.682;2023-01-25T07:58:04;103253.47;;;1.13;79.38
64095;BME280;50353;51.420;5.682;2023-01-25T08:00:30;103258.88;;;1.24;79.80
64095;BME280;50353;51.420;5.682;2023-01-25T08:02:55;103260.56;;;1.22;79.71
64095;BME280;50353;51.420;5.682;2023-01-25T08:05:20;103262.97;;;1.11;79.71
64095;BME280;50353;51.420;5.682;2023-01-25T08:07:46;103268.66;;;0.90;81.19
64095;BME280;50353;51.420;5.682;2023-01-25T08:10:12;103264.81;;;0.73;82.37
64095;BME280;50353;51.420;5.682;2023-01-25T08:12:38;103270.00;;;0.30;83.04
64095;BME280;50353;51.420;5.682;2023-01-25T08:15:03;103267.75;;;0.45;83.01
64095;BME280;50353;51.420;5.682;2023-01-25T08:17:29;103269.31;;;0.80;81.90
64095;BME280;50353;51.420;5.682;2023-01-25T08:19:59;103260.81;;;0.89;81.90
64095;BME280;50353;51.420;5.682;2023-01-25T08:22:25;103252.50;;;0.65;82.01
64095;BME280;50353;51.420;5.682;2023-01-25T08:24:51;103253.09;;;0.95;80.75
64095;BME280;50353;51.420;5.682;2023-01-25T08:27:16;103247.06;;;0.97;80.94
64095;BME280;50353;51.420;5.682;2023-01-25T08:29:41;103260.72;;;0.84;81.35
64095;BME280;50353;51.420;5.682;2023-01-25T08:32:07;103256.56;;;0.49;82.10
64095;BME280;50353;51.420;5.682;2023-01-25T08:34:33;103266.69;;;0.80;81.34
64095;BME280;50353;51.420;5.682;2023-01-25T08:36:58;103255.28;;;0.73;81.28
64095;BME280;50353;51.420;5.682;2023-01-25T08:39:24;103253.75;;;0.40;83.86
64095;BME280;50353;51.420;5.682;2023-01-25T08:41:53;103252.69;;;0.73;83.13
64095;BME280;50353;51.420;5.682;2023-01-25T08:44:18;103236.72;;;1.02;80.94
64095;BME280;50353;51.420;5.682;2023-01-25T08:46:48;103233.25;;;1.00;81.59
64095;BME280;50353;51.420;5.682;2023-01-25T08:49:14;103241.88;;;0.97;80.88
64095;BME280;50353;51.420;5.682;2023-01-25T08:51:40;103232.72;;;1.21;80.32
64095;BME280;50353;51.420;5.682;2023-01-25T08:54:06;103240.81;;;0.88;81.63
64095;BME280;50353;51.420;5.682;2023-01-25T08:56:32;103239.78;;;0.78;80.29
64095;BME280;50353;51.420;5.682;2023-01-25T08:58:57;103246.22;;;0.54;81.58
64095;BME280;50353;51.420;5.682;2023-01-25T09:01:23;103244.88;;;0.30;83.78
64095;BME280;50353;51.420;5.682;2023-01-25T09:03:49;103240.28;;;0.19;84.32
64095;BME280;50353;51.420;5.682;2023-01-25T09:06:16;103243.09;;;0.72;81.82
64095;BME280;50353;51.420;5.682;2023-01-25T09:08:42;103233.94;;;0.47;82.35
64095;BME280;50353;51.420;5.682;2023-01-25T09:11:10;103219.88;;;0.83;81.43
64095;BME280;50353;51.420;5.682;2023-01-25T09:13:36;103223.22;;;0.76;80.72
64095;BME280;50353;51.420;5.682;2023-01-25T09:16:05;103233.41;;;0.63;81.67
64095;BME280;50353;51.420;5.682;2023-01-25T09:18:32;103210.34;;;0.82;81.31
64095;BME280;50353;51.420;5.682;2023-01-25T09:21:04;103199.66;;;1.15;80.34
64095;BME280;50353;51.420;5.682;2023-01-25T09:23:29;103217.22;;;1.27;79.32
64095;BME280;50353;51.420;5.682;2023-01-25T09:25:56;103208.69;;;0.87;79.99
64095;BME280;50353;51.420;5.682;2023-01-25T09:28:22;103210.47;;;0.90;80.38
64095;BME280;50353;51.420;5.682;2023-01-25T09:30:58;103223.06;;;0.68;81.13
64095;BME280;50353;51.420;5.682;2023-01-25T09:33:26;103221.56;;;0.37;82.76
64095;BME280;50353;51.420;5.682;2023-01-25T09:35:51;103218.03;;;0.76;82.03
64095;BME280;50353;51.420;5.682;2023-01-25T09:38:16;103217.41;;;0.89;81.06
64095;BME280;50353;51.420;5.682;2023-01-25T09:40:55;103205.19;;;0.41;82.84
64095;BME280;50353;51.420;5.682;2023-01-25T09:43:31;103218.44;;;0.12;84.47
64095;BME280;50353;51.420;5.682;2023-01-25T09:46:09;103215.84;;;0.12;84.95
64095;BME280;50353;51.420;5.682;2023-01-25T09:48:46;103222.50;;;0.39;83.83
64095;BME280;50353;51.420;5.682;2023-01-25T09:51:25;103222.84;;;0.57;82.89
64095;BME280;50353;51.420;5.682;2023-01-25T09:53:54;103222.56;;;0.42;81.97
64095;BME280;50353;51.420;5.682;2023-01-25T09:56:32;103212.44;;;0.57;82.15
64095;BME280;50353;51.420;5.682;2023-01-25T09:59:04;103214.66;;;0.37;83.12
64095;BME280;50353;51.420;5.682;2023-01-25T10:01:47;103216.25;;;0.75;82.19
64095;BME280;50353;51.420;5.682;2023-01-25T10:04:18;103206.78;;;0.77;82.01
64095;BME280;50353;51.420;5.682;2023-01-25T10:06:48;103212.50;;;0.59;82.08
64095;BME280;50353;51.420;5.682;2023-01-25T10:09:29;103205.75;;;0.69;82.16
64095;BME280;50353;51.420;5.682;2023-01-25T10:11:58;103196.69;;;0.48;82.70
64095;BME280;50353;51.420;5.682;2023-01-25T10:14:28;103197.31;;;0.82;82.08
64095;BME280;50353;51.420;5.682;2023-01-25T10:17:05;103197.00;;;0.66;82.48
64095;BME280;50353;51.420;5.682;2023-01-25T10:20:08;103198.13;;;0.78;82.54
64095;BME280;50353;51.420;5.682;2023-01-25T10:22:49;103195.84;;;0.50;82.19
64095;BME280;50353;51.420;5.682;2023-01-25T10:25:20;103206.13;;;0.44;83.02
64095;BME280;50353;51.420;5.682;2023-01-25T10:28:01;103197.34;;;0.39;83.62
64095;BME280;50353;51.420;5.682;2023-01-25T10:30:32;103194.19;;;0.54;83.14
64095;BME280;50353;51.420;5.682;2023-01-25T10:33:01;103174.59;;;0.75;82.42
64095;BME280;50353;51.420;5.682;2023-01-25T10:35:35;103162.00;;;0.98;82.29
64095;BME280;50353;51.420;5.682;2023-01-25T10:38:12;103178.13;;;1.26;80.56
64095;BME280;50353;51.420;5.682;2023-01-25T10:40:43;103165.88;;;1.20;80.17
64095;BME280;50353;51.420;5.682;2023-01-25T10:43:17;103156.66;;;0.89;81.31
64095;BME280;50353;51.420;5.682;2023-01-25T10:45:42;103164.91;;;0.66;82.12
64095;BME280;50353;51.420;5.682;2023-01-25T10:48:14;103161.47;;;0.23;83.59
64095;BME280;50353;51.420;5.682;2023-01-25T10:50:43;103139.28;;;-0.03;84.73
64095;BME280;50353;51.420;5.682;2023-01-25T10:53:37;103152.13;;;-0.09;85.83
64095;BME280;50353;51.420;5.682;2023-01-25T10:56:23;103137.28;;;0.28;84.75
64095;BME280;50353;51.420;5.682;2023-01-25T10:58:51;103136.34;;;0.23;84.76
64095;BME280;50353;51.420;5.682;2023-01-25T11:01:31;103120.75;;;0.72;83.04
64095;BME280;50353;51.420;5.682;2023-01-25T11:03:57;103124.13;;;0.66;82.99
64095;BME280;50353;51.420;5.682;2023-01-25T11:06:33;103119.50;;;0.50;83.36
64095;BME280;50353;51.420;5.682;2023-01-25T11:08:59;103114.56;;;1.16;82.13
64095;BME280;50353;51.420;5.682;2023-01-25T11:11:34;103095.31;;;1.08;81.25
64095;BME280;50353;51.420;5.682;2023-01-25T11:14:00;103102.16;;;1.58;80.62
64095;BME280;50353;51.420;5.682;2023-01-25T11:16:30;103102.97;;;1.54;78.82
64095;BME280;50353;51.420;5.682;2023-01-25T11:18:58;103094.22;;;1.50;78.65
64095;BME280;50353;51.420;5.682;2023-01-25T11:21:33;103092.66;;;1.63;78.40
64095;BME280;50353;51.420;5.682;2023-01-25T11:24:15;103081.09;;;1.44;78.21
64095;BME280;50353;51.420;5.682;2023-01-25T11:26:41;103071.22;;;1.21;79.89
64095;BME280;50353;51.420;5.682;2023-01-25T11:31:32;103074.66;;;0.65;81.54
64095;BME280;50353;51.420;5.682;2023-01-25T11:33:57;103067.41;;;0.97;80.77
64095;BME280;50353;51.420;5.682;2023-01-25T11:41:35;103047.78;;;1.23;78.73
64095;BME280;50353;51.420;5.682;2023-01-25T11:47:19;103013.50;;;0.93;79.66
64095;BME280;50353;51.420;5.682;2023-01-25T11:57:44;103019.34;;;1.37;78.24
64095;BME280;50353;51.420;5.682;2023-01-25T12:03:43;103007.53;;;0.99;79.44
64095;BME280;50353;51.420;5.682;2023-01-25T12:06:29;103004.31;;;0.60;81.03
64095;BME280;50353;51.420;5.682;2023-01-25T12:09:20;102983.53;;;1.20;79.24
64095;BME280;50353;51.420;5.682;2023-01-25T12:12:56;102981.16;;;1.42;77.45
64095;BME280;50353;51.420;5.682;2023-01-25T12:15:09;102950.00;;;1.48;77.38
64095;BME280;50353;51.420;5.682;2023-01-25T12:23:11;102949.13;;;0.83;79.24
64095;BME280;50353;51.420;5.682;2023-01-25T12:26:10;102938.69;;;1.47;79.15
64095;BME280;50353;51.420;5.682;2023-01-25T12:28:50;102932.81;;;1.65;77.71
64095;BME280;50353;51.420;5.682;2023-01-25T12:31:23;102926.09;;;1.91;76.48
64095;BME280;50353;51.420;5.682;2023-01-25T12:33:55;102918.03;;;1.67;78.28
64095;BME280;50353;51.420;5.682;2023-01-25T12:36:29;102901.44;;;1.56;77.15
64095;BME280;50353;51.420;5.682;2023-01-25T12:41:51;102901.34;;;1.50;76.91
64095;BME280;50353;51.420;5.682;2023-01-25T12:44:25;102896.31;;;1.65;75.73
64095;BME280;50353;51.420;5.682;2023-01-25T12:46:58;102891.59;;;1.33;77.30
64095;BME280;50353;51.420;5.682;2023-01-25T12:52:19;102892.09;;;1.01;79.59
64095;BME280;50353;51.420;5.682;2023-01-25T12:54:46;102878.44;;;1.21;79.40
64095;BME280;50353;51.420;5.682;2023-01-25T13:00:42;102865.63;;;1.38;78.04
64095;BME280;50353;51.420;5.682;2023-01-25T13:11:10;102849.38;;;1.62;79.18
64095;BME280;50353;51.420;5.682;2023-01-25T13:13:36;102845.88;;;1.60;78.20
64095;BME280;50353;51.420;5.682;2023-01-25T13:18:57;102839.69;;;1.49;77.12
64095;BME280;50353;51.420;5.682;2023-01-25T13:21:43;102841.94;;;1.18;78.29
64095;BME280;50353;51.420;5.682;2023-01-25T13:32:10;102818.34;;;1.03;80.18
64095;BME280;50353;51.420;5.682;2023-01-25T13:37:27;102818.53;;;1.23;79.98
64095;BME280;50353;51.420;5.682;2023-01-25T13:39:57;102823.69;;;0.46;83.44
64095;BME280;50353;51.420;5.682;2023-01-25T13:42:28;102829.34;;;0.80;82.16
64095;BME280;50353;51.420;5.682;2023-01-25T13:45:15;102816.72;;;1.12;81.13
64095;BME280;50353;51.420;5.682;2023-01-25T13:47:58;102810.19;;;1.51;79.93
64095;BME280;50353;51.420;5.682;2023-01-25T13:50:26;102813.78;;;1.69;77.95
64095;BME280;50353;51.420;5.682;2023-01-25T13:52:57;102805.19;;;1.78;77.65
64095;BME280;50353;51.420;5.682;2023-01-25T13:55:23;102810.31;;;1.70;78.79
64095;BME280;50353;51.420;5.682;2023-01-25T13:57:48;102803.53;;;0.98;78.43
64095;BME280;50353;51.420;5.682;2023-01-25T14:00:16;102803.13;;;1.43;78.05
64095;BME280;50353;51.420;5.682;2023-01-25T14:02:44;102798.94;;;1.60;78.57
64095;BME280;50353;51.420;5.682;2023-01-25T14:05:23;102797.03;;;0.64;81.47
64095;BME280;50353;51.420;5.682;2023-01-25T14:07:52;102778.31;;;0.94;79.79
64095;BME280;50353;51.420;5.682;2023-01-25T14:10:20;102774.19;;;1.12;79.29